sensor_id;sensor_type;location;lat;lon;timestamp;P1;durP1;ratioP1;P2;durP2;ratioP2
17414;SDS011;8825;48.086;16.426;2024-03-07T00:00:05;27.43;;;25.33;;
17414;SDS011;8825;48.086;16.426;2024-03-07T00:02:36;28.47;;;26.47;;
17414;SDS011;8825;48.086;16.426;2024-03-07T00:05:04;32.53;;;30.30;;
17414;SDS011;8825;48.086;16.426;2024-03-07T00:07:31;31.27;;;29.17;;
17414;SDS011;8825;48.086;16.426;2024-03-07T00:09:59;30.30;;;28.20;;
17414;SDS011;8825;48.086;16.426;2024-03-07T00:12:28;29.70;;;27.67;;
17414;SDS011;8825;48.086;16.426;2024-03-07T00:14:56;30.67;;;28.73;;
17414;SDS011;8825;48.086;16.426;2024-03-07T00:17:23;32.50;;;30.40;;
17414;SDS011;8825;48.086;16.426;2024-03-07T00:19:51;30.87;;;28.67;;
17414;SDS011;8825;48.086;16.426;2024-03-07T00:22:18;30.17;;;28.07;;
17414;SDS011;8825;48.086;16.426;2024-03-07T00:24:46;28.30;;;26.50;;
17414;SDS011;8825;48.086;16.426;2024-03-07T00:27:13;28.03;;;26.03;;
17414;SDS011;8825;48.086;16.426;2024-03-07T00:29:41;27.00;;;25.10;;
17414;SDS011;8825;48.086;16.426;2024-03-07T00:32:08;27.87;;;25.90;;
17414;SDS011;8825;48.086;16.426;2024-03-07T00:34:36;32.50;;;30.40;;
17414;SDS011;8825;48.086;16.426;2024-03-07T00:37:05;34.23;;;31.93;;
17414;SDS011;8825;48.086;16.426;2024-03-07T00:39:33;31.93;;;29.90;;
17414;SDS011;8825;48.086;16.426;2024-03-07T00:42:00;42.47;;;39.97;;
17414;SDS011;8825;48.086;16.426;2024-03-07T00:44:28;36.83;;;34.43;;
17414;SDS011;8825;48.086;16.426;2024-03-07T00:46:56;36.70;;;34.43;;
17414;SDS011;8825;48.086;16.426;2024-03-07T00:49:23;38.53;;;36.13;;
17414;SDS011;8825;48.086;16.426;2024-03-07T00:51:51;51.83;;;48.93;;
17414;SDS011;8825;48.086;16.426;2024-03-07T00:54:19;49.53;;;46.40;;
17414;SDS011;8825;48.086;16.426;2024-03-07T00:56:47;40.83;;;38.27;;
17414;SDS011;8825;48.086;16.426;2024-03-07T00:59:15;35.23;;;32.87;;
17414;SDS011;8825;48.086;16.426;2024-03-07T01:01:42;40.70;;;38.13;;
17414;SDS011;8825;48.086;16.426;2024-03-07T01:04:11;40.70;;;38.10;;
17414;SDS011;8825;48.086;16.426;2024-03-07T01:06:38;37.87;;;35.40;;
17414;SDS011;8825;48.086;16.426;2024-03-07T01:09:07;38.40;;;36.00;;
17414;SDS011;8825;48.086;16.426;2024-03-07T01:11:39;43.33;;;40.60;;
17414;SDS011;8825;48.086;16.426;2024-03-07T01:14:11;40.13;;;37.57;;
17414;SDS011;8825;48.086;16.426;2024-03-07T01:16:39;39.13;;;36.63;;
17414;SDS011;8825;48.086;16.426;2024-03-07T01:19:07;35.27;;;33.07;;
17414;SDS011;8825;48.086;16.426;2024-03-07T01:21:35;30.17;;;27.97;;
17414;SDS011;8825;48.086;16.426;2024-03-07T01:24:02;33.00;;;30.80;;
17414;SDS011;8825;48.086;16.426;2024-03-07T01:26:30;33.17;;;30.97;;
17414;SDS011;8825;48.086;16.426;2024-03-07T01:29:00;30.13;;;28.13;;
17414;SDS011;8825;48.086;16.426;2024-03-07T01:31:28;31.47;;;29.27;;
17414;SDS011;8825;48.086;16.426;2024-03-07T01:33:55;28.30;;;26.30;;
17414;SDS011;8825;48.086;16.426;2024-03-07T01:36:23;26.73;;;24.87;;
17414;SDS011;8825;48.086;16.426;2024-03-07T01:38:50;32.50;;;30.37;;
17414;SDS011;8825;48.086;16.426;2024-03-07T01:41:20;24.40;;;22.50;;
17414;SDS011;8825;48.086;16.426;2024-03-07T01:43:47;29.27;;;27.23;;
17414;SDS011;8825;48.086;16.426;2024-03-07T01:46:14;28.07;;;25.93;;
17414;SDS011;8825;48.086;16.426;2024-03-07T01:48:42;34.50;;;32.20;;
17414;SDS011;8825;48.086;16.426;2024-03-07T01:51:12;36.00;;;33.50;;
17414;SDS011;8825;48.086;16.426;2024-03-07T01:53:40;34.13;;;31.90;;
17414;SDS011;8825;48.086;16.426;2024-03-07T01:56:08;34.93;;;32.53;;
17414;SDS011;8825;48.086;16.426;2024-03-07T01:58:36;32.43;;;30.07;;
17414;SDS011;8825;48.086;16.426;2024-03-07T02:01:04;32.20;;;30.00;;
17414;SDS011;8825;48.086;16.426;2024-03-07T02:03:32;31.43;;;29.30;;
17414;SDS011;8825;48.086;16.426;2024-03-07T02:06:02;31.07;;;28.87;;
17414;SDS011;8825;48.086;16.426;2024-03-07T02:08:30;42.03;;;39.47;;
17414;SDS011;8825;48.086;16.426;2024-03-07T02:10:58;32.67;;;30.50;;
17414;SDS011;8825;48.086;16.426;2024-03-07T02:13:25;30.40;;;28.33;;
17414;SDS011;8825;48.086;16.426;2024-03-07T02:15:53;36.20;;;33.77;;
17414;SDS011;8825;48.086;16.426;2024-03-07T02:18:21;39.20;;;36.57;;
17414;SDS011;8825;48.086;16.426;2024-03-07T02:20:49;35.83;;;33.67;;
17414;SDS011;8825;48.086;16.426;2024-03-07T02:23:17;30.93;;;28.83;;
17414;SDS011;8825;48.086;16.426;2024-03-07T02:25:44;30.27;;;28.17;;
17414;SDS011;8825;48.086;16.426;2024-03-07T02:28:12;31.90;;;29.70;;
17414;SDS011;8825;48.086;16.426;2024-03-07T02:30:40;28.87;;;26.97;;
17414;SDS011;8825;48.086;16.426;2024-03-07T02:33:07;30.80;;;28.40;;
17414;SDS011;8825;48.086;16.426;2024-03-07T02:35:35;29.07;;;27.07;;
17414;SDS011;8825;48.086;16.426;2024-03-07T02:38:03;34.30;;;32.07;;
17414;SDS011;8825;48.086;16.426;2024-03-07T02:40:34;29.73;;;27.70;;
17414;SDS011;8825;48.086;16.426;2024-03-07T02:43:01;43.33;;;40.43;;
17414;SDS011;8825;48.086;16.426;2024-03-07T02:45:30;41.83;;;38.10;;
17414;SDS011;8825;48.086;16.426;2024-03-07T02:47:58;47.73;;;44.13;;
17414;SDS011;8825;48.086;16.426;2024-03-07T02:50:26;51.80;;;47.97;;
17414;SDS011;8825;48.086;16.426;2024-03-07T02:52:53;64.47;;;60.30;;
17414;SDS011;8825;48.086;16.426;2024-03-07T02:55:21;39.03;;;36.27;;
17414;SDS011;8825;48.086;16.426;2024-03-07T02:57:48;44.67;;;41.80;;
17414;SDS011;8825;48.086;16.426;2024-03-07T03:00:16;34.80;;;32.23;;
17414;SDS011;8825;48.086;16.426;2024-03-07T03:02:48;49.07;;;45.90;;
17414;SDS011;8825;48.086;16.426;2024-03-07T03:05:16;42.73;;;39.83;;
17414;SDS011;8825;48.086;16.426;2024-03-07T03:07:44;98.93;;;93.87;;
17414;SDS011;8825;48.086;16.426;2024-03-07T03:10:14;67.50;;;63.73;;
17414;SDS011;8825;48.086;16.426;2024-03-07T03:12:41;30.90;;;28.60;;
17414;SDS011;8825;48.086;16.426;2024-03-07T03:15:10;43.03;;;39.87;;
17414;SDS011;8825;48.086;16.426;2024-03-07T03:17:37;71.93;;;67.77;;
17414;SDS011;8825;48.086;16.426;2024-03-07T03:20:05;39.67;;;36.80;;
17414;SDS011;8825;48.086;16.426;2024-03-07T03:22:35;42.37;;;39.40;;
17414;SDS011;8825;48.086;16.426;2024-03-07T03:25:02;30.20;;;27.73;;
17414;SDS011;8825;48.086;16.426;2024-03-07T03:27:30;41.27;;;38.23;;
17414;SDS011;8825;48.086;16.426;2024-03-07T03:29:58;29.40;;;27.03;;
17414;SDS011;8825;48.086;16.426;2024-03-07T03:32:26;68.37;;;64.60;;
17414;SDS011;8825;48.086;16.426;2024-03-07T03:34:53;41.50;;;38.60;;
17414;SDS011;8825;48.086;16.426;2024-03-07T03:37:21;33.57;;;31.13;;
17414;SDS011;8825;48.086;16.426;2024-03-07T03:39:48;38.93;;;36.23;;
17414;SDS011;8825;48.086;16.426;2024-03-07T03:42:16;39.40;;;36.73;;
17414;SDS011;8825;48.086;16.426;2024-03-07T03:44:44;39.10;;;36.50;;
17414;SDS011;8825;48.086;16.426;2024-03-07T03:47:11;38.73;;;36.03;;
17414;SDS011;8825;48.086;16.426;2024-03-07T03:49:39;40.47;;;37.87;;
17414;SDS011;8825;48.086;16.426;2024-03-07T03:52:07;33.60;;;31.20;;
17414;SDS011;8825;48.086;16.426;2024-03-07T03:54:35;39.57;;;36.90;;
17414;SDS011;8825;48.086;16.426;2024-03-07T03:57:02;35.67;;;33.37;;
17414;SDS011;8825;48.086;16.426;2024-03-07T03:59:30;32.23;;;30.00;;
17414;SDS011;8825;48.086;16.426;2024-03-07T04:01:57;29.27;;;27.27;;
17414;SDS011;8825;48.086;16.426;2024-03-07T04:04:25;32.03;;;29.90;;
17414;SDS011;8825;48.086;16.426;2024-03-07T04:06:53;30.77;;;28.57;;
17414;SDS011;8825;48.086;16.426;2024-03-07T04:09:21;27.57;;;25.63;;
17414;SDS011;8825;48.086;16.426;2024-03-07T04:11:49;24.23;;;22.43;;
17414;SDS011;8825;48.086;16.426;2024-03-07T04:14:16;25.40;;;23.43;;
17414;SDS011;8825;48.086;16.426;2024-03-07T04:16:45;24.50;;;22.67;;
17414;SDS011;8825;48.086;16.426;2024-03-07T04:19:13;28.60;;;26.40;;
17414;SDS011;8825;48.086;16.426;2024-03-07T04:21:41;25.77;;;23.87;;
17414;SDS011;8825;48.086;16.426;2024-03-07T04:24:08;26.30;;;24.40;;
17414;SDS011;8825;48.086;16.426;2024-03-07T04:26:36;28.93;;;26.93;;
17414;SDS011;8825;48.086;16.426;2024-03-07T04:29:04;28.30;;;26.40;;
17414;SDS011;8825;48.086;16.426;2024-03-07T04:31:31;29.63;;;27.57;;
17414;SDS011;8825;48.086;16.426;2024-03-07T04:33:59;29.17;;;27.00;;
17414;SDS011;8825;48.086;16.426;2024-03-07T04:36:26;30.73;;;28.63;;
17414;SDS011;8825;48.086;16.426;2024-03-07T04:38:54;31.17;;;29.07;;
17414;SDS011;8825;48.086;16.426;2024-03-07T04:41:22;30.47;;;28.30;;
17414;SDS011;8825;48.086;16.426;2024-03-07T04:43:49;36.60;;;34.23;;
17414;SDS011;8825;48.086;16.426;2024-03-07T04:46:17;43.03;;;40.50;;
17414;SDS011;8825;48.086;16.426;2024-03-07T04:48:44;44.13;;;41.33;;
17414;SDS011;8825;48.086;16.426;2024-03-07T04:51:12;50.57;;;47.70;;
17414;SDS011;8825;48.086;16.426;2024-03-07T04:53:40;45.07;;;42.37;;
17414;SDS011;8825;48.086;16.426;2024-03-07T04:56:08;32.17;;;30.07;;
17414;SDS011;8825;48.086;16.426;2024-03-07T04:58:35;27.97;;;25.93;;
17414;SDS011;8825;48.086;16.426;2024-03-07T05:01:03;29.73;;;27.67;;
17414;SDS011;8825;48.086;16.426;2024-03-07T05:03:31;29.20;;;27.20;;
17414;SDS011;8825;48.086;16.426;2024-03-07T05:05:58;29.93;;;27.83;;
17414;SDS011;8825;48.086;16.426;2024-03-07T05:08:26;40.90;;;38.30;;
17414;SDS011;8825;48.086;16.426;2024-03-07T05:10:53;47.37;;;44.37;;
17414;SDS011;8825;48.086;16.426;2024-03-07T05:13:21;47.23;;;44.47;;
17414;SDS011;8825;48.086;16.426;2024-03-07T05:15:49;34.13;;;31.83;;
17414;SDS011;8825;48.086;16.426;2024-03-07T05:18:16;35.70;;;33.50;;
17414;SDS011;8825;48.086;16.426;2024-03-07T05:20:44;42.53;;;40.20;;
17414;SDS011;8825;48.086;16.426;2024-03-07T05:23:12;37.77;;;35.27;;
17414;SDS011;8825;48.086;16.426;2024-03-07T05:25:40;36.23;;;33.93;;
17414;SDS011;8825;48.086;16.426;2024-03-07T05:28:08;35.47;;;33.20;;
17414;SDS011;8825;48.086;16.426;2024-03-07T05:30:35;36.13;;;33.73;;
17414;SDS011;8825;48.086;16.426;2024-03-07T05:33:03;38.93;;;36.53;;
17414;SDS011;8825;48.086;16.426;2024-03-07T05:35:30;33.00;;;30.80;;
17414;SDS011;8825;48.086;16.426;2024-03-07T05:37:58;44.03;;;41.47;;
17414;SDS011;8825;48.086;16.426;2024-03-07T05:40:27;51.73;;;48.83;;
17414;SDS011;8825;48.086;16.426;2024-03-07T05:42:55;45.27;;;42.60;;
17414;SDS011;8825;48.086;16.426;2024-03-07T05:45:23;40.77;;;38.27;;
17414;SDS011;8825;48.086;16.426;2024-03-07T05:47:50;37.27;;;34.93;;
17414;SDS011;8825;48.086;16.426;2024-03-07T05:50:18;47.57;;;44.67;;
17414;SDS011;8825;48.086;16.426;2024-03-07T05:52:45;36.83;;;34.43;;
17414;SDS011;8825;48.086;16.426;2024-03-07T05:55:14;52.37;;;49.53;;
17414;SDS011;8825;48.086;16.426;2024-03-07T05:57:43;44.07;;;41.50;;
17414;SDS011;8825;48.086;16.426;2024-03-07T06:00:11;52.93;;;49.97;;
17414;SDS011;8825;48.086;16.426;2024-03-07T06:02:41;36.00;;;33.63;;
17414;SDS011;8825;48.086;16.426;2024-03-07T06:05:09;38.37;;;36.10;;
17414;SDS011;8825;48.086;16.426;2024-03-07T06:07:38;44.53;;;41.93;;
17414;SDS011;8825;48.086;16.426;2024-03-07T06:10:05;53.03;;;50.07;;
17414;SDS011;8825;48.086;16.426;2024-03-07T06:12:35;52.33;;;49.23;;
17414;SDS011;8825;48.086;16.426;2024-03-07T06:17:53;47.80;;;44.93;;
17414;SDS011;8825;48.086;16.426;2024-03-07T06:20:21;65.00;;;61.53;;
17414;SDS011;8825;48.086;16.426;2024-03-07T06:22:51;61.47;;;58.07;;
17414;SDS011;8825;48.086;16.426;2024-03-07T06:25:19;45.73;;;43.03;;
17414;SDS011;8825;48.086;16.426;2024-03-07T06:27:48;49.30;;;46.50;;
17414;SDS011;8825;48.086;16.426;2024-03-07T06:30:15;54.63;;;51.70;;
17414;SDS011;8825;48.086;16.426;2024-03-07T06:32:44;59.80;;;56.43;;
17414;SDS011;8825;48.086;16.426;2024-03-07T06:35:11;53.57;;;50.60;;
17414;SDS011;8825;48.086;16.426;2024-03-07T06:37:39;50.93;;;48.07;;
17414;SDS011;8825;48.086;16.426;2024-03-07T06:40:07;44.30;;;41.73;;
17414;SDS011;8825;48.086;16.426;2024-03-07T06:42:35;47.37;;;44.53;;
17414;SDS011;8825;48.086;16.426;2024-03-07T06:45:03;49.03;;;46.27;;
17414;SDS011;8825;48.086;16.426;2024-03-07T06:47:32;53.90;;;50.83;;
17414;SDS011;8825;48.086;16.426;2024-03-07T06:49:59;58.40;;;55.07;;
17414;SDS011;8825;48.086;16.426;2024-03-07T06:52:27;49.67;;;46.67;;
17414;SDS011;8825;48.086;16.426;2024-03-07T06:54:54;44.23;;;41.53;;
17414;SDS011;8825;48.086;16.426;2024-03-07T06:57:22;58.13;;;54.83;;
17414;SDS011;8825;48.086;16.426;2024-03-07T06:59:50;54.10;;;51.17;;
17414;SDS011;8825;48.086;16.426;2024-03-07T07:02:17;59.37;;;56.07;;
17414;SDS011;8825;48.086;16.426;2024-03-07T07:04:45;42.30;;;39.70;;
17414;SDS011;8825;48.086;16.426;2024-03-07T07:07:13;38.77;;;36.33;;
17414;SDS011;8825;48.086;16.426;2024-03-07T07:09:41;45.77;;;43.07;;
17414;SDS011;8825;48.086;16.426;2024-03-07T07:12:09;44.63;;;41.97;;
17414;SDS011;8825;48.086;16.426;2024-03-07T07:14:36;79.50;;;75.70;;
17414;SDS011;8825;48.086;16.426;2024-03-07T07:17:04;40.50;;;38.03;;
17414;SDS011;8825;48.086;16.426;2024-03-07T07:19:32;38.47;;;35.93;;
17414;SDS011;8825;48.086;16.426;2024-03-07T07:22:00;42.73;;;40.10;;
17414;SDS011;8825;48.086;16.426;2024-03-07T07:24:28;35.70;;;33.27;;
17414;SDS011;8825;48.086;16.426;2024-03-07T07:26:57;41.63;;;38.87;;
17414;SDS011;8825;48.086;16.426;2024-03-07T07:29:25;49.20;;;46.30;;
17414;SDS011;8825;48.086;16.426;2024-03-07T07:31:52;43.90;;;41.23;;
17414;SDS011;8825;48.086;16.426;2024-03-07T07:34:20;38.80;;;36.17;;
17414;SDS011;8825;48.086;16.426;2024-03-07T07:36:47;46.13;;;43.37;;
17414;SDS011;8825;48.086;16.426;2024-03-07T07:39:15;54.00;;;50.77;;
17414;SDS011;8825;48.086;16.426;2024-03-07T07:41:42;50.50;;;47.43;;
17414;SDS011;8825;48.086;16.426;2024-03-07T07:44:10;43.57;;;40.87;;
17414;SDS011;8825;48.086;16.426;2024-03-07T07:46:37;35.30;;;33.00;;
17414;SDS011;8825;48.086;16.426;2024-03-07T07:49:06;39.93;;;37.37;;
17414;SDS011;8825;48.086;16.426;2024-03-07T07:51:34;51.90;;;49.00;;
17414;SDS011;8825;48.086;16.426;2024-03-07T07:54:01;48.33;;;45.37;;
17414;SDS011;8825;48.086;16.426;2024-03-07T07:56:29;46.50;;;43.83;;
17414;SDS011;8825;48.086;16.426;2024-03-07T07:58:56;51.30;;;48.20;;
17414;SDS011;8825;48.086;16.426;2024-03-07T08:01:24;59.27;;;55.97;;
17414;SDS011;8825;48.086;16.426;2024-03-07T08:03:51;44.77;;;41.73;;
17414;SDS011;8825;48.086;16.426;2024-03-07T08:06:20;43.27;;;40.57;;
17414;SDS011;8825;48.086;16.426;2024-03-07T08:08:47;39.50;;;36.97;;
17414;SDS011;8825;48.086;16.426;2024-03-07T08:11:16;52.30;;;49.30;;
17414;SDS011;8825;48.086;16.426;2024-03-07T08:13:43;53.77;;;50.47;;
17414;SDS011;8825;48.086;16.426;2024-03-07T08:16:12;39.23;;;36.67;;
17414;SDS011;8825;48.086;16.426;2024-03-07T08:18:40;32.13;;;29.87;;
17414;SDS011;8825;48.086;16.426;2024-03-07T08:21:07;32.40;;;30.07;;
17414;SDS011;8825;48.086;16.426;2024-03-07T08:23:37;41.30;;;38.70;;
17414;SDS011;8825;48.086;16.426;2024-03-07T08:26:04;39.43;;;37.13;;
17414;SDS011;8825;48.086;16.426;2024-03-07T08:28:32;27.93;;;26.10;;
17414;SDS011;8825;48.086;16.426;2024-03-07T08:30:59;28.53;;;26.50;;
17414;SDS011;8825;48.086;16.426;2024-03-07T08:33:27;35.67;;;33.47;;
17414;SDS011;8825;48.086;16.426;2024-03-07T08:35:57;27.50;;;25.57;;
17414;SDS011;8825;48.086;16.426;2024-03-07T08:38:24;24.87;;;22.97;;
17414;SDS011;8825;48.086;16.426;2024-03-07T08:40:52;25.50;;;23.60;;
17414;SDS011;8825;48.086;16.426;2024-03-07T08:43:20;25.50;;;23.70;;
17414;SDS011;8825;48.086;16.426;2024-03-07T08:45:48;25.17;;;23.50;;
17414;SDS011;8825;48.086;16.426;2024-03-07T08:48:15;24.30;;;22.13;;
17414;SDS011;8825;48.086;16.426;2024-03-07T08:50:43;24.47;;;22.67;;
17414;SDS011;8825;48.086;16.426;2024-03-07T08:53:10;21.60;;;20.03;;
17414;SDS011;8825;48.086;16.426;2024-03-07T08:55:38;26.70;;;25.00;;
17414;SDS011;8825;48.086;16.426;2024-03-07T08:58:05;31.77;;;29.73;;
17414;SDS011;8825;48.086;16.426;2024-03-07T09:00:34;29.27;;;27.43;;
17414;SDS011;8825;48.086;16.426;2024-03-07T09:03:02;25.43;;;23.60;;
17414;SDS011;8825;48.086;16.426;2024-03-07T09:05:31;32.07;;;30.17;;
17414;SDS011;8825;48.086;16.426;2024-03-07T09:07:59;48.10;;;41.67;;
17414;SDS011;8825;48.086;16.426;2024-03-07T09:10:26;26.10;;;24.43;;
17414;SDS011;8825;48.086;16.426;2024-03-07T09:12:55;21.37;;;19.87;;
17414;SDS011;8825;48.086;16.426;2024-03-07T09:15:23;21.80;;;20.27;;
17414;SDS011;8825;48.086;16.426;2024-03-07T09:17:51;23.90;;;22.27;;
17414;SDS011;8825;48.086;16.426;2024-03-07T09:20:19;25.10;;;23.13;;
17414;SDS011;8825;48.086;16.426;2024-03-07T09:22:47;25.37;;;23.57;;
17414;SDS011;8825;48.086;16.426;2024-03-07T09:25:16;31.83;;;29.63;;
17414;SDS011;8825;48.086;16.426;2024-03-07T09:27:44;23.83;;;21.93;;
17414;SDS011;8825;48.086;16.426;2024-03-07T09:30:12;23.83;;;21.60;;
17414;SDS011;8825;48.086;16.426;2024-03-07T09:32:41;29.97;;;27.77;;
17414;SDS011;8825;48.086;16.426;2024-03-07T09:35:09;26.13;;;24.20;;
17414;SDS011;8825;48.086;16.426;2024-03-07T09:37:42;36.07;;;33.83;;
17414;SDS011;8825;48.086;16.426;2024-03-07T09:40:10;38.37;;;36.03;;
17414;SDS011;8825;48.086;16.426;2024-03-07T09:42:45;33.97;;;31.83;;
17414;SDS011;8825;48.086;16.426;2024-03-07T09:45:19;38.50;;;35.80;;
17414;SDS011;8825;48.086;16.426;2024-03-07T09:47:48;46.67;;;43.77;;
17414;SDS011;8825;48.086;16.426;2024-03-07T09:50:17;31.87;;;29.97;;
17414;SDS011;8825;48.086;16.426;2024-03-07T09:52:52;42.90;;;40.50;;
17414;SDS011;8825;48.086;16.426;2024-03-07T09:55:18;34.83;;;32.67;;
17414;SDS011;8825;48.086;16.426;2024-03-07T09:57:47;37.70;;;35.37;;
17414;SDS011;8825;48.086;16.426;2024-03-07T10:00:16;29.20;;;27.40;;
17414;SDS011;8825;48.086;16.426;2024-03-07T10:02:46;38.03;;;35.73;;
17414;SDS011;8825;48.086;16.426;2024-03-07T10:05:16;34.90;;;32.70;;
17414;SDS011;8825;48.086;16.426;2024-03-07T10:07:45;53.63;;;50.53;;
17414;SDS011;8825;48.086;16.426;2024-03-07T10:10:12;47.90;;;44.97;;
17414;SDS011;8825;48.086;16.426;2024-03-07T10:12:40;45.73;;;43.17;;
17414;SDS011;8825;48.086;16.426;2024-03-07T10:15:08;42.80;;;40.37;;
17414;SDS011;8825;48.086;16.426;2024-03-07T10:17:39;37.10;;;34.90;;
17414;SDS011;8825;48.086;16.426;2024-03-07T10:20:06;54.27;;;50.97;;
17414;SDS011;8825;48.086;16.426;2024-03-07T10:22:37;62.20;;;58.73;;
17414;SDS011;8825;48.086;16.426;2024-03-07T10:25:04;56.70;;;53.63;;
17414;SDS011;8825;48.086;16.426;2024-03-07T10:27:35;93.97;;;89.33;;
17414;SDS011;8825;48.086;16.426;2024-03-07T10:30:04;51.23;;;48.17;;
17414;SDS011;8825;48.086;16.426;2024-03-07T10:32:35;51.90;;;48.73;;
17414;SDS011;8825;48.086;16.426;2024-03-07T10:35:03;55.67;;;52.50;;
17414;SDS011;8825;48.086;16.426;2024-03-07T10:37:34;48.73;;;45.80;;
17414;SDS011;8825;48.086;16.426;2024-03-07T10:40:02;41.47;;;38.80;;
17414;SDS011;8825;48.086;16.426;2024-03-07T10:42:32;37.63;;;35.33;;
17414;SDS011;8825;48.086;16.426;2024-03-07T10:45:03;42.13;;;39.43;;
17414;SDS011;8825;48.086;16.426;2024-03-07T10:47:32;45.47;;;42.57;;
17414;SDS011;8825;48.086;16.426;2024-03-07T10:52:40;60.93;;;57.57;;
17414;SDS011;8825;48.086;16.426;2024-03-07T10:58:01;62.53;;;59.20;;
17414;SDS011;8825;48.086;16.426;2024-03-07T11:00:27;78.07;;;74.03;;
17414;SDS011;8825;48.086;16.426;2024-03-07T11:02:59;75.73;;;71.60;;
17414;SDS011;8825;48.086;16.426;2024-03-07T11:05:28;57.57;;;53.83;;
17414;SDS011;8825;48.086;16.426;2024-03-07T11:07:59;93.10;;;88.13;;
17414;SDS011;8825;48.086;16.426;2024-03-07T11:10:37;57.40;;;54.20;;
17414;SDS011;8825;48.086;16.426;2024-03-07T11:13:09;64.30;;;60.80;;
17414;SDS011;8825;48.086;16.426;2024-03-07T11:15:43;50.47;;;47.33;;
17414;SDS011;8825;48.086;16.426;2024-03-07T11:18:09;54.37;;;51.17;;
17414;SDS011;8825;48.086;16.426;2024-03-07T11:20:38;59.67;;;56.23;;
17414;SDS011;8825;48.086;16.426;2024-03-07T11:23:24;47.87;;;44.70;;
17414;SDS011;8825;48.086;16.426;2024-03-07T11:26:07;54.20;;;50.60;;
17414;SDS011;8825;48.086;16.426;2024-03-07T11:28:36;56.63;;;52.93;;
17414;SDS011;8825;48.086;16.426;2024-03-07T11:33:41;54.80;;;51.20;;
17414;SDS011;8825;48.086;16.426;2024-03-07T11:36:09;89.83;;;84.97;;
17414;SDS011;8825;48.086;16.426;2024-03-07T11:38:59;59.13;;;55.33;;
17414;SDS011;8825;48.086;16.426;2024-03-07T11:41:18;60.20;;;56.40;;
17414;SDS011;8825;48.086;16.426;2024-03-07T11:43:48;66.00;;;61.93;;
17414;SDS011;8825;48.086;16.426;2024-03-07T11:46:17;104.97;;;99.60;;
17414;SDS011;8825;48.086;16.426;2024-03-07T11:48:47;110.67;;;105.23;;
17414;SDS011;8825;48.086;16.426;2024-03-07T11:51:17;64.27;;;60.30;;
17414;SDS011;8825;48.086;16.426;2024-03-07T11:53:47;40.83;;;37.90;;
17414;SDS011;8825;48.086;16.426;2024-03-07T11:56:17;40.97;;;37.97;;
17414;SDS011;8825;48.086;16.426;2024-03-07T11:58:44;36.10;;;33.47;;
17414;SDS011;8825;48.086;16.426;2024-03-07T12:01:13;33.83;;;31.13;;
17414;SDS011;8825;48.086;16.426;2024-03-07T12:03:42;51.23;;;47.73;;
17414;SDS011;8825;48.086;16.426;2024-03-07T12:06:12;53.40;;;49.90;;
17414;SDS011;8825;48.086;16.426;2024-03-07T12:08:41;45.83;;;42.33;;
17414;SDS011;8825;48.086;16.426;2024-03-07T12:11:09;41.80;;;38.27;;
17414;SDS011;8825;48.086;16.426;2024-03-07T12:13:38;37.93;;;34.83;;
17414;SDS011;8825;48.086;16.426;2024-03-07T12:16:06;41.00;;;37.60;;
17414;SDS011;8825;48.086;16.426;2024-03-07T12:18:34;36.47;;;33.63;;
17414;SDS011;8825;48.086;16.426;2024-03-07T12:21:03;33.40;;;30.70;;
17414;SDS011;8825;48.086;16.426;2024-03-07T12:23:32;36.63;;;33.50;;
17414;SDS011;8825;48.086;16.426;2024-03-07T12:26:02;34.93;;;31.90;;
17414;SDS011;8825;48.086;16.426;2024-03-07T12:28:30;34.17;;;31.17;;
17414;SDS011;8825;48.086;16.426;2024-03-07T12:31:00;34.17;;;31.27;;
17414;SDS011;8825;48.086;16.426;2024-03-07T12:33:28;33.83;;;31.03;;
17414;SDS011;8825;48.086;16.426;2024-03-07T12:36:01;34.53;;;31.63;;
17414;SDS011;8825;48.086;16.426;2024-03-07T12:38:30;32.97;;;30.17;;
17414;SDS011;8825;48.086;16.426;2024-03-07T12:41:06;33.30;;;30.40;;
17414;SDS011;8825;48.086;16.426;2024-03-07T12:43:36;37.90;;;34.73;;
17414;SDS011;8825;48.086;16.426;2024-03-07T12:46:05;35.37;;;32.53;;
17414;SDS011;8825;48.086;16.426;2024-03-07T12:48:34;39.80;;;36.50;;
17414;SDS011;8825;48.086;16.426;2024-03-07T12:51:03;40.40;;;37.17;;
17414;SDS011;8825;48.086;16.426;2024-03-07T12:53:31;36.13;;;32.90;;
17414;SDS011;8825;48.086;16.426;2024-03-07T12:56:00;38.27;;;34.73;;
17414;SDS011;8825;48.086;16.426;2024-03-07T12:58:29;37.67;;;34.53;;
17414;SDS011;8825;48.086;16.426;2024-03-07T13:00:56;47.90;;;44.33;;
17414;SDS011;8825;48.086;16.426;2024-03-07T13:03:24;48.33;;;44.30;;
17414;SDS011;8825;48.086;16.426;2024-03-07T13:05:56;44.17;;;40.63;;
17414;SDS011;8825;48.086;16.426;2024-03-07T13:08:30;37.27;;;34.13;;
17414;SDS011;8825;48.086;16.426;2024-03-07T13:10:58;39.90;;;36.23;;
17414;SDS011;8825;48.086;16.426;2024-03-07T13:13:25;44.37;;;41.03;;
17414;SDS011;8825;48.086;16.426;2024-03-07T13:15:53;32.63;;;29.83;;
17414;SDS011;8825;48.086;16.426;2024-03-07T13:18:23;41.67;;;38.13;;
17414;SDS011;8825;48.086;16.426;2024-03-07T13:20:51;42.53;;;39.17;;
17414;SDS011;8825;48.086;16.426;2024-03-07T13:23:18;38.20;;;35.17;;
17414;SDS011;8825;48.086;16.426;2024-03-07T13:25:46;39.43;;;36.33;;
17414;SDS011;8825;48.086;16.426;2024-03-07T13:28:14;56.23;;;52.17;;
17414;SDS011;8825;48.086;16.426;2024-03-07T13:30:44;46.80;;;43.27;;
17414;SDS011;8825;48.086;16.426;2024-03-07T13:33:13;58.97;;;55.07;;
17414;SDS011;8825;48.086;16.426;2024-03-07T13:35:41;56.27;;;52.47;;
17414;SDS011;8825;48.086;16.426;2024-03-07T13:38:09;40.73;;;37.50;;
17414;SDS011;8825;48.086;16.426;2024-03-07T13:40:36;64.23;;;60.00;;
17414;SDS011;8825;48.086;16.426;2024-03-07T13:43:06;55.40;;;51.43;;
17414;SDS011;8825;48.086;16.426;2024-03-07T13:45:34;103.73;;;63.57;;
17414;SDS011;8825;48.086;16.426;2024-03-07T13:48:04;79.97;;;71.57;;
17414;SDS011;8825;48.086;16.426;2024-03-07T13:50:33;71.07;;;51.93;;
17414;SDS011;8825;48.086;16.426;2024-03-07T13:53:03;61.10;;;56.80;;
17414;SDS011;8825;48.086;16.426;2024-03-07T13:55:52;57.27;;;53.20;;
17414;SDS011;8825;48.086;16.426;2024-03-07T14:24:45;49.03;;;45.50;;
17414;SDS011;8825;48.086;16.426;2024-03-07T14:27:26;41.93;;;38.53;;
17414;SDS011;8825;48.086;16.426;2024-03-07T14:32:59;41.97;;;38.50;;
17414;SDS011;8825;48.086;16.426;2024-03-07T14:35:23;48.23;;;44.33;;
17414;SDS011;8825;48.086;16.426;2024-03-07T14:37:55;47.43;;;43.83;;
17414;SDS011;8825;48.086;16.426;2024-03-07T14:40:40;43.73;;;40.33;;
17414;SDS011;8825;48.086;16.426;2024-03-07T14:43:10;48.67;;;44.53;;
17414;SDS011;8825;48.086;16.426;2024-03-07T14:45:38;52.37;;;48.57;;
17414;SDS011;8825;48.086;16.426;2024-03-07T14:48:07;46.57;;;42.97;;
17414;SDS011;8825;48.086;16.426;2024-03-07T14:50:39;45.97;;;42.53;;
17414;SDS011;8825;48.086;16.426;2024-03-07T14:53:08;46.57;;;43.13;;
17414;SDS011;8825;48.086;16.426;2024-03-07T14:55:38;42.77;;;39.37;;
17414;SDS011;8825;48.086;16.426;2024-03-07T14:58:07;56.47;;;52.37;;
17414;SDS011;8825;48.086;16.426;2024-03-07T15:00:36;48.80;;;45.07;;
17414;SDS011;8825;48.086;16.426;2024-03-07T15:03:12;46.80;;;43.07;;
17414;SDS011;8825;48.086;16.426;2024-03-07T15:05:43;55.23;;;51.00;;
17414;SDS011;8825;48.086;16.426;2024-03-07T15:08:12;48.90;;;45.20;;